sensor_id;sensor_type;location;lat;lon;timestamp;P1;durP1;ratioP1;P2;durP2;ratioP2
8654;SDS011;13500;52.514;13.462;2024-02-23T00:02:24;3.40;;;2.10;;
8654;SDS011;13500;52.514;13.462;2024-02-23T00:04:52;2.13;;;1.23;;
8654;SDS011;13500;52.514;13.462;2024-02-23T00:07:23;3.30;;;1.80;;
8654;SDS011;13500;52.514;13.462;2024-02-23T00:09:51;2.50;;;1.50;;
8654;SDS011;13500;52.514;13.462;2024-02-23T00:12:19;4.13;;;2.60;;
8654;SDS011;13500;52.514;13.462;2024-02-23T00:14:47;2.53;;;1.70;;
8654;SDS011;13500;52.514;13.462;2024-02-23T00:17:14;2.50;;;1.50;;
8654;SDS011;13500;52.514;13.462;2024-02-23T00:19:46;3.10;;;1.90;;
8654;SDS011;13500;52.514;13.462;2024-02-23T00:22:15;2.70;;;1.43;;
8654;SDS011;13500;52.514;13.462;2024-02-23T00:24:43;3.87;;;1.80;;
8654;SDS011;13500;52.514;13.462;2024-02-23T00:27:11;1.97;;;1.50;;
8654;SDS011;13500;52.514;13.462;2024-02-23T00:29:39;1.33;;;1.23;;
8654;SDS011;13500;52.514;13.462;2024-02-23T00:32:07;2.43;;;1.70;;
8654;SDS011;13500;52.514;13.462;2024-02-23T00:34:35;1.83;;;1.67;;
8654;SDS011;13500;52.514;13.462;2024-02-23T00:37:05;1.77;;;1.40;;
8654;SDS011;13500;52.514;13.462;2024-02-23T00:39:34;1.90;;;1.50;;
8654;SDS011;13500;52.514;13.462;2024-02-23T00:42:03;1.53;;;1.43;;
8654;SDS011;13500;52.514;13.462;2024-02-23T00:44:31;1.67;;;1.50;;
8654;SDS011;13500;52.514;13.462;2024-02-23T00:46:59;1.63;;;1.47;;
8654;SDS011;13500;52.514;13.462;2024-02-23T00:49:28;2.10;;;1.50;;
8654;SDS011;13500;52.514;13.462;2024-02-23T00:51:56;3.03;;;2.43;;
8654;SDS011;13500;52.514;13.462;2024-02-23T00:54:25;2.03;;;1.60;;
8654;SDS011;13500;52.514;13.462;2024-02-23T00:56:53;1.60;;;1.30;;
8654;SDS011;13500;52.514;13.462;2024-02-23T00:59:23;1.83;;;1.63;;
8654;SDS011;13500;52.514;13.462;2024-02-23T01:01:51;1.97;;;1.70;;
8654;SDS011;13500;52.514;13.462;2024-02-23T01:04:19;1.90;;;1.70;;
8654;SDS011;13500;52.514;13.462;2024-02-23T01:06:47;3.93;;;2.60;;
8654;SDS011;13500;52.514;13.462;2024-02-23T01:09:15;2.43;;;1.93;;
8654;SDS011;13500;52.514;13.462;2024-02-23T01:11:48;2.67;;;1.90;;
8654;SDS011;13500;52.514;13.462;2024-02-23T01:14:16;2.40;;;1.50;;
8654;SDS011;13500;52.514;13.462;2024-02-23T01:16:44;3.00;;;2.20;;
8654;SDS011;13500;52.514;13.462;2024-02-23T01:19:12;2.20;;;1.70;;
8654;SDS011;13500;52.514;13.462;2024-02-23T01:21:40;4.33;;;2.50;;
8654;SDS011;13500;52.514;13.462;2024-02-23T01:24:08;1.40;;;1.30;;
8654;SDS011;13500;52.514;13.462;2024-02-23T01:26:35;2.07;;;1.87;;
8654;SDS011;13500;52.514;13.462;2024-02-23T01:29:09;3.87;;;1.63;;
8654;SDS011;13500;52.514;13.462;2024-02-23T01:31:37;4.80;;;2.70;;
8654;SDS011;13500;52.514;13.462;2024-02-23T01:34:05;2.17;;;1.80;;
8654;SDS011;13500;52.514;13.462;2024-02-23T01:36:33;3.37;;;2.60;;
8654;SDS011;13500;52.514;13.462;2024-02-23T01:39:02;2.53;;;1.83;;
8654;SDS011;13500;52.514;13.462;2024-02-23T01:41:30;3.97;;;2.90;;
8654;SDS011;13500;52.514;13.462;2024-02-23T01:43:59;3.40;;;2.27;;
8654;SDS011;13500;52.514;13.462;2024-02-23T01:46:28;3.00;;;1.87;;
8654;SDS011;13500;52.514;13.462;2024-02-23T01:48:56;1.90;;;1.70;;
8654;SDS011;13500;52.514;13.462;2024-02-23T01:51:24;1.73;;;1.60;;
8654;SDS011;13500;52.514;13.462;2024-02-23T01:53:53;1.77;;;1.20;;
8654;SDS011;13500;52.514;13.462;2024-02-23T01:56:21;1.33;;;1.23;;
8654;SDS011;13500;52.514;13.462;2024-02-23T01:58:49;1.60;;;1.30;;
8654;SDS011;13500;52.514;13.462;2024-02-23T02:01:17;1.57;;;1.20;;
8654;SDS011;13500;52.514;13.462;2024-02-23T02:03:46;1.93;;;1.10;;
8654;SDS011;13500;52.514;13.462;2024-02-23T02:06:14;1.20;;;1.10;;
8654;SDS011;13500;52.514;13.462;2024-02-23T02:08:42;1.63;;;1.27;;
8654;SDS011;13500;52.514;13.462;2024-02-23T02:11:10;1.20;;;1.10;;
8654;SDS011;13500;52.514;13.462;2024-02-23T02:13:38;0.90;;;0.90;;
8654;SDS011;13500;52.514;13.462;2024-02-23T02:16:06;1.30;;;1.00;;
8654;SDS011;13500;52.514;13.462;2024-02-23T02:18:34;2.00;;;0.97;;
8654;SDS011;13500;52.514;13.462;2024-02-23T02:21:03;2.07;;;0.97;;
8654;SDS011;13500;52.514;13.462;2024-02-23T02:23:31;1.67;;;0.83;;
8654;SDS011;13500;52.514;13.462;2024-02-23T02:25:59;1.03;;;0.80;;
8654;SDS011;13500;52.514;13.462;2024-02-23T02:28:27;1.37;;;0.90;;
8654;SDS011;13500;52.514;13.462;2024-02-23T02:30:55;1.03;;;0.90;;
8654;SDS011;13500;52.514;13.462;2024-02-23T02:33:23;0.90;;;0.73;;
8654;SDS011;13500;52.514;13.462;2024-02-23T02:35:51;2.00;;;0.90;;
8654;SDS011;13500;52.514;13.462;2024-02-23T02:38:20;2.90;;;0.60;;
8654;SDS011;13500;52.514;13.462;2024-02-23T02:40:48;2.07;;;0.80;;
8654;SDS011;13500;52.514;13.462;2024-02-23T02:43:17;0.53;;;0.50;;
8654;SDS011;13500;52.514;13.462;2024-02-23T02:45:45;0.67;;;0.50;;
8654;SDS011;13500;52.514;13.462;2024-02-23T02:48:13;1.23;;;0.77;;
8654;SDS011;13500;52.514;13.462;2024-02-23T02:50:41;1.40;;;0.50;;
8654;SDS011;13500;52.514;13.462;2024-02-23T02:53:09;0.80;;;0.70;;
8654;SDS011;13500;52.514;13.462;2024-02-23T02:55:40;1.67;;;0.90;;
8654;SDS011;13500;52.514;13.462;2024-02-23T02:58:09;0.80;;;0.60;;
8654;SDS011;13500;52.514;13.462;2024-02-23T03:00:38;0.70;;;0.70;;
8654;SDS011;13500;52.514;13.462;2024-02-23T03:03:06;0.83;;;0.60;;
8654;SDS011;13500;52.514;13.462;2024-02-23T03:05:35;0.97;;;0.70;;
8654;SDS011;13500;52.514;13.462;2024-02-23T03:08:03;1.80;;;0.60;;
8654;SDS011;13500;52.514;13.462;2024-02-23T03:10:31;0.93;;;0.40;;
8654;SDS011;13500;52.514;13.462;2024-02-23T03:13:01;0.77;;;0.40;;
8654;SDS011;13500;52.514;13.462;2024-02-23T03:15:28;0.70;;;0.60;;
8654;SDS011;13500;52.514;13.462;2024-02-23T03:17:56;1.37;;;0.80;;
8654;SDS011;13500;52.514;13.462;2024-02-23T03:20:24;0.70;;;0.50;;
8654;SDS011;13500;52.514;13.462;2024-02-23T03:22:52;0.93;;;0.70;;
8654;SDS011;13500;52.514;13.462;2024-02-23T03:25:20;2.57;;;0.87;;
8654;SDS011;13500;52.514;13.462;2024-02-23T03:27:48;2.00;;;0.80;;
8654;SDS011;13500;52.514;13.462;2024-02-23T03:30:18;0.40;;;0.30;;
8654;SDS011;13500;52.514;13.462;2024-02-23T03:32:46;1.53;;;0.70;;
8654;SDS011;13500;52.514;13.462;2024-02-23T03:35:14;2.47;;;0.83;;
8654;SDS011;13500;52.514;13.462;2024-02-23T03:37:42;0.80;;;0.70;;
8654;SDS011;13500;52.514;13.462;2024-02-23T03:40:10;1.47;;;0.70;;
8654;SDS011;13500;52.514;13.462;2024-02-23T03:42:39;1.07;;;0.73;;
8654;SDS011;13500;52.514;13.462;2024-02-23T03:45:07;1.93;;;0.70;;
8654;SDS011;13500;52.514;13.462;2024-02-23T03:47:38;1.77;;;0.60;;
8654;SDS011;13500;52.514;13.462;2024-02-23T03:50:07;3.97;;;0.70;;
8654;SDS011;13500;52.514;13.462;2024-02-23T03:52:36;2.20;;;0.73;;
8654;SDS011;13500;52.514;13.462;2024-02-23T03:55:04;1.13;;;0.53;;
8654;SDS011;13500;52.514;13.462;2024-02-23T03:57:33;1.07;;;0.60;;
8654;SDS011;13500;52.514;13.462;2024-02-23T04:00:01;1.20;;;0.80;;
8654;SDS011;13500;52.514;13.462;2024-02-23T04:02:39;1.70;;;0.90;;
8654;SDS011;13500;52.514;13.462;2024-02-23T04:05:07;1.10;;;0.70;;
8654;SDS011;13500;52.514;13.462;2024-02-23T04:07:35;1.03;;;0.60;;
8654;SDS011;13500;52.514;13.462;2024-02-23T04:10:05;0.93;;;0.70;;
8654;SDS011;13500;52.514;13.462;2024-02-23T04:12:34;0.70;;;0.57;;
8654;SDS011;13500;52.514;13.462;2024-02-23T04:15:02;1.43;;;0.70;;
8654;SDS011;13500;52.514;13.462;2024-02-23T04:17:30;0.70;;;0.60;;
8654;SDS011;13500;52.514;13.462;2024-02-23T04:20:00;2.47;;;0.60;;
8654;SDS011;13500;52.514;13.462;2024-02-23T04:22:33;1.57;;;0.70;;
8654;SDS011;13500;52.514;13.462;2024-02-23T04:25:01;2.07;;;0.70;;
8654;SDS011;13500;52.514;13.462;2024-02-23T04:27:31;1.57;;;0.60;;
8654;SDS011;13500;52.514;13.462;2024-02-23T04:29:59;0.87;;;0.60;;
8654;SDS011;13500;52.514;13.462;2024-02-23T04:32:27;0.90;;;0.70;;
8654;SDS011;13500;52.514;13.462;2024-02-23T04:34:55;1.17;;;0.60;;
8654;SDS011;13500;52.514;13.462;2024-02-23T04:37:24;1.50;;;0.60;;
8654;SDS011;13500;52.514;13.462;2024-02-23T04:39:52;2.80;;;0.70;;
8654;SDS011;13500;52.514;13.462;2024-02-23T04:42:20;2.87;;;0.80;;
8654;SDS011;13500;52.514;13.462;2024-02-23T04:44:48;1.73;;;0.83;;
8654;SDS011;13500;52.514;13.462;2024-02-23T04:47:19;2.60;;;0.87;;
8654;SDS011;13500;52.514;13.462;2024-02-23T04:49:47;2.00;;;0.40;;
8654;SDS011;13500;52.514;13.462;2024-02-23T04:52:16;0.77;;;0.50;;
8654;SDS011;13500;52.514;13.462;2024-02-23T04:54:45;0.60;;;0.50;;
8654;SDS011;13500;52.514;13.462;2024-02-23T04:57:13;2.17;;;0.60;;
8654;SDS011;13500;52.514;13.462;2024-02-23T04:59:41;1.13;;;0.73;;
8654;SDS011;13500;52.514;13.462;2024-02-23T05:02:07;1.37;;;0.60;;
8654;SDS011;13500;52.514;13.462;2024-02-23T05:04:35;1.60;;;0.70;;
8654;SDS011;13500;52.514;13.462;2024-02-23T05:07:03;1.10;;;0.57;;
8654;SDS011;13500;52.514;13.462;2024-02-23T05:09:31;0.40;;;0.40;;
8654;SDS011;13500;52.514;13.462;2024-02-23T05:12:02;2.47;;;0.80;;
8654;SDS011;13500;52.514;13.462;2024-02-23T05:14:31;0.87;;;0.60;;
8654;SDS011;13500;52.514;13.462;2024-02-23T05:16:59;1.23;;;0.60;;
8654;SDS011;13500;52.514;13.462;2024-02-23T05:19:27;1.03;;;0.50;;
8654;SDS011;13500;52.514;13.462;2024-02-23T05:21:55;0.73;;;0.50;;
8654;SDS011;13500;52.514;13.462;2024-02-23T05:24:23;0.43;;;0.30;;
8654;SDS011;13500;52.514;13.462;2024-02-23T05:26:52;1.10;;;0.60;;
8654;SDS011;13500;52.514;13.462;2024-02-23T05:29:21;2.63;;;0.80;;
8654;SDS011;13500;52.514;13.462;2024-02-23T05:31:50;0.80;;;0.47;;
8654;SDS011;13500;52.514;13.462;2024-02-23T05:34:19;1.20;;;0.70;;
8654;SDS011;13500;52.514;13.462;2024-02-23T05:36:48;1.00;;;0.50;;
8654;SDS011;13500;52.514;13.462;2024-02-23T05:39:17;1.97;;;0.60;;
8654;SDS011;13500;52.514;13.462;2024-02-23T05:41:45;1.93;;;0.67;;
8654;SDS011;13500;52.514;13.462;2024-02-23T05:44:13;0.70;;;0.40;;
8654;SDS011;13500;52.514;13.462;2024-02-23T05:46:43;0.40;;;0.40;;
8654;SDS011;13500;52.514;13.462;2024-02-23T05:49:11;0.87;;;0.40;;
8654;SDS011;13500;52.514;13.462;2024-02-23T05:51:39;0.70;;;0.60;;
8654;SDS011;13500;52.514;13.462;2024-02-23T05:54:07;0.63;;;0.57;;
8654;SDS011;13500;52.514;13.462;2024-02-23T05:56:35;2.30;;;0.70;;
8654;SDS011;13500;52.514;13.462;2024-02-23T05:59:04;0.47;;;0.47;;
8654;SDS011;13500;52.514;13.462;2024-02-23T06:01:33;0.60;;;0.50;;
8654;SDS011;13500;52.514;13.462;2024-02-23T06:04:02;0.40;;;0.40;;
8654;SDS011;13500;52.514;13.462;2024-02-23T06:06:30;0.87;;;0.50;;
8654;SDS011;13500;52.514;13.462;2024-02-23T06:08:58;1.90;;;0.73;;
8654;SDS011;13500;52.514;13.462;2024-02-23T06:11:27;0.43;;;0.43;;
8654;SDS011;13500;52.514;13.462;2024-02-23T06:13:55;1.47;;;0.70;;
8654;SDS011;13500;52.514;13.462;2024-02-23T06:16:23;3.03;;;1.10;;
8654;SDS011;13500;52.514;13.462;2024-02-23T06:18:51;1.27;;;1.00;;
8654;SDS011;13500;52.514;13.462;2024-02-23T06:21:20;1.43;;;1.00;;
8654;SDS011;13500;52.514;13.462;2024-02-23T06:23:48;2.63;;;0.97;;
8654;SDS011;13500;52.514;13.462;2024-02-23T06:26:16;2.07;;;1.20;;
8654;SDS011;13500;52.514;13.462;2024-02-23T06:28:44;1.83;;;1.37;;
8654;SDS011;13500;52.514;13.462;2024-02-23T06:31:12;1.30;;;1.00;;
8654;SDS011;13500;52.514;13.462;2024-02-23T06:33:40;1.00;;;0.90;;
8654;SDS011;13500;52.514;13.462;2024-02-23T06:36:08;2.23;;;0.63;;
8654;SDS011;13500;52.514;13.462;2024-02-23T06:38:38;0.57;;;0.57;;
8654;SDS011;13500;52.514;13.462;2024-02-23T06:41:06;2.60;;;0.67;;
8654;SDS011;13500;52.514;13.462;2024-02-23T06:43:37;1.03;;;0.70;;
8654;SDS011;13500;52.514;13.462;2024-02-23T06:46:06;1.17;;;0.50;;
8654;SDS011;13500;52.514;13.462;2024-02-23T06:48:34;1.00;;;0.40;;
8654;SDS011;13500;52.514;13.462;2024-02-23T06:51:03;1.60;;;0.47;;
8654;SDS011;13500;52.514;13.462;2024-02-23T06:53:31;1.33;;;0.70;;
8654;SDS011;13500;52.514;13.462;2024-02-23T06:56:01;1.60;;;0.80;;
8654;SDS011;13500;52.514;13.462;2024-02-23T06:58:29;1.37;;;0.60;;
8654;SDS011;13500;52.514;13.462;2024-02-23T07:00:57;0.67;;;0.67;;
8654;SDS011;13500;52.514;13.462;2024-02-23T07:03:26;0.60;;;0.60;;
8654;SDS011;13500;52.514;13.462;2024-02-23T07:05:54;1.40;;;0.80;;
8654;SDS011;13500;52.514;13.462;2024-02-23T07:08:22;0.73;;;0.50;;
8654;SDS011;13500;52.514;13.462;2024-02-23T07:10:50;0.77;;;0.60;;
8654;SDS011;13500;52.514;13.462;2024-02-23T07:13:20;0.87;;;0.83;;
8654;SDS011;13500;52.514;13.462;2024-02-23T07:15:48;1.90;;;0.97;;
8654;SDS011;13500;52.514;13.462;2024-02-23T07:18:16;2.67;;;0.77;;
8654;SDS011;13500;52.514;13.462;2024-02-23T07:20:44;1.63;;;0.80;;
8654;SDS011;13500;52.514;13.462;2024-02-23T07:23:12;0.73;;;0.53;;
8654;SDS011;13500;52.514;13.462;2024-02-23T07:25:42;2.43;;;0.80;;
8654;SDS011;13500;52.514;13.462;2024-02-23T07:28:10;2.07;;;0.90;;
8654;SDS011;13500;52.514;13.462;2024-02-23T07:30:40;3.67;;;0.80;;
8654;SDS011;13500;52.514;13.462;2024-02-23T07:33:07;2.30;;;1.00;;
8654;SDS011;13500;52.514;13.462;2024-02-23T07:35:36;0.70;;;0.60;;
8654;SDS011;13500;52.514;13.462;2024-02-23T07:38:04;1.10;;;1.00;;
8654;SDS011;13500;52.514;13.462;2024-02-23T07:40:32;1.03;;;0.93;;
8654;SDS011;13500;52.514;13.462;2024-02-23T07:42:59;1.30;;;1.10;;
8654;SDS011;13500;52.514;13.462;2024-02-23T07:45:28;3.50;;;1.30;;
8654;SDS011;13500;52.514;13.462;2024-02-23T07:47:57;1.60;;;0.70;;
8654;SDS011;13500;52.514;13.462;2024-02-23T07:50:25;3.20;;;1.00;;
8654;SDS011;13500;52.514;13.462;2024-02-23T07:52:53;4.13;;;0.97;;
8654;SDS011;13500;52.514;13.462;2024-02-23T07:55:21;0.73;;;0.73;;
8654;SDS011;13500;52.514;13.462;2024-02-23T07:57:49;2.00;;;0.90;;
8654;SDS011;13500;52.514;13.462;2024-02-23T08:00:18;1.17;;;0.83;;
8654;SDS011;13500;52.514;13.462;2024-02-23T08:02:46;1.70;;;1.13;;
8654;SDS011;13500;52.514;13.462;2024-02-23T08:05:16;1.03;;;0.70;;
8654;SDS011;13500;52.514;13.462;2024-02-23T08:07:44;1.17;;;0.77;;
8654;SDS011;13500;52.514;13.462;2024-02-23T08:10:12;4.07;;;0.93;;
8654;SDS011;13500;52.514;13.462;2024-02-23T08:12:40;1.50;;;1.00;;
8654;SDS011;13500;52.514;13.462;2024-02-23T08:15:09;2.53;;;1.20;;
8654;SDS011;13500;52.514;13.462;2024-02-23T08:17:37;1.50;;;1.00;;
8654;SDS011;13500;52.514;13.462;2024-02-23T08:20:06;3.20;;;1.20;;
8654;SDS011;13500;52.514;13.462;2024-02-23T08:22:36;2.80;;;1.17;;
8654;SDS011;13500;52.514;13.462;2024-02-23T08:25:04;1.70;;;1.20;;
8654;SDS011;13500;52.514;13.462;2024-02-23T08:27:32;1.77;;;0.90;;
8654;SDS011;13500;52.514;13.462;2024-02-23T08:29:59;2.40;;;1.10;;
8654;SDS011;13500;52.514;13.462;2024-02-23T08:32:27;2.07;;;1.20;;
8654;SDS011;13500;52.514;13.462;2024-02-23T08:34:55;1.57;;;1.20;;
8654;SDS011;13500;52.514;13.462;2024-02-23T08:37:26;2.70;;;0.93;;
8654;SDS011;13500;52.514;13.462;2024-02-23T08:39:55;1.87;;;1.10;;
8654;SDS011;13500;52.514;13.462;2024-02-23T08:42:23;1.30;;;1.00;;
8654;SDS011;13500;52.514;13.462;2024-02-23T08:44:51;2.47;;;1.03;;
8654;SDS011;13500;52.514;13.462;2024-02-23T08:47:21;1.50;;;0.80;;
8654;SDS011;13500;52.514;13.462;2024-02-23T08:49:48;2.63;;;0.77;;
8654;SDS011;13500;52.514;13.462;2024-02-23T08:52:16;2.40;;;1.27;;
8654;SDS011;13500;52.514;13.462;2024-02-23T08:54:45;0.77;;;0.67;;
8654;SDS011;13500;52.514;13.462;2024-02-23T08:57:14;2.63;;;0.90;;
8654;SDS011;13500;52.514;13.462;2024-02-23T08:59:46;1.77;;;1.10;;
8654;SDS011;13500;52.514;13.462;2024-02-23T09:02:14;1.20;;;0.90;;
8654;SDS011;13500;52.514;13.462;2024-02-23T09:04:42;2.67;;;1.00;;
8654;SDS011;13500;52.514;13.462;2024-02-23T09:07:11;1.17;;;0.90;;
8654;SDS011;13500;52.514;13.462;2024-02-23T09:09:40;1.33;;;1.00;;
8654;SDS011;13500;52.514;13.462;2024-02-23T09:12:08;2.30;;;1.00;;
8654;SDS011;13500;52.514;13.462;2024-02-23T09:14:39;2.30;;;0.97;;
8654;SDS011;13500;52.514;13.462;2024-02-23T09:17:08;1.10;;;0.83;;
8654;SDS011;13500;52.514;13.462;2024-02-23T09:19:37;3.63;;;1.10;;
8654;SDS011;13500;52.514;13.462;2024-02-23T09:22:05;2.20;;;0.83;;
8654;SDS011;13500;52.514;13.462;2024-02-23T09:24:34;1.17;;;1.00;;
8654;SDS011;13500;52.514;13.462;2024-02-23T09:27:02;2.43;;;1.00;;
8654;SDS011;13500;52.514;13.462;2024-02-23T09:29:30;1.33;;;0.97;;
8654;SDS011;13500;52.514;13.462;2024-02-23T09:32:00;1.17;;;1.00;;
8654;SDS011;13500;52.514;13.462;2024-02-23T09:34:28;1.27;;;0.90;;
8654;SDS011;13500;52.514;13.462;2024-02-23T09:36:57;2.40;;;0.80;;
8654;SDS011;13500;52.514;13.462;2024-02-23T09:39:25;1.80;;;1.10;;
8654;SDS011;13500;52.514;13.462;2024-02-23T09:41:59;0.77;;;0.70;;
8654;SDS011;13500;52.514;13.462;2024-02-23T09:44:31;1.03;;;0.77;;
8654;SDS011;13500;52.514;13.462;2024-02-23T09:47:02;4.07;;;0.50;;
8654;SDS011;13500;52.514;13.462;2024-02-23T09:49:35;0.60;;;0.60;;
8654;SDS011;13500;52.514;13.462;2024-02-23T09:52:06;1.33;;;0.90;;
8654;SDS011;13500;52.514;13.462;2024-02-23T09:54:36;1.17;;;0.67;;
8654;SDS011;13500;52.514;13.462;2024-02-23T09:57:06;1.33;;;0.80;;
8654;SDS011;13500;52.514;13.462;2024-02-23T09:59:35;1.67;;;0.97;;
8654;SDS011;13500;52.514;13.462;2024-02-23T10:02:06;1.47;;;1.00;;
8654;SDS011;13500;52.514;13.462;2024-02-23T10:04:36;1.97;;;0.80;;
8654;SDS011;13500;52.514;13.462;2024-02-23T10:07:06;0.87;;;0.80;;
8654;SDS011;13500;52.514;13.462;2024-02-23T10:09:34;1.00;;;0.73;;
8654;SDS011;13500;52.514;13.462;2024-02-23T10:12:02;0.93;;;0.60;;
8654;SDS011;13500;52.514;13.462;2024-02-23T10:14:31;1.90;;;1.00;;
8654;SDS011;13500;52.514;13.462;2024-02-23T10:16:59;0.77;;;0.70;;
8654;SDS011;13500;52.514;13.462;2024-02-23T10:19:29;1.97;;;0.93;;
8654;SDS011;13500;52.514;13.462;2024-02-23T10:21:58;0.80;;;0.63;;
8654;SDS011;13500;52.514;13.462;2024-02-23T10:24:26;1.67;;;1.00;;
8654;SDS011;13500;52.514;13.462;2024-02-23T10:26:54;1.00;;;0.67;;
8654;SDS011;13500;52.514;13.462;2024-02-23T10:29:22;0.77;;;0.60;;
8654;SDS011;13500;52.514;13.462;2024-02-23T10:31:51;0.50;;;0.50;;
8654;SDS011;13500;52.514;13.462;2024-02-23T10:34:20;1.30;;;0.80;;
8654;SDS011;13500;52.514;13.462;2024-02-23T10:36:49;1.63;;;0.80;;
8654;SDS011;13500;52.514;13.462;2024-02-23T10:39:18;1.63;;;0.80;;
8654;SDS011;13500;52.514;13.462;2024-02-23T10:41:47;2.33;;;0.90;;
8654;SDS011;13500;52.514;13.462;2024-02-23T10:44:18;1.27;;;0.80;;
8654;SDS011;13500;52.514;13.462;2024-02-23T10:46:46;1.57;;;0.77;;
8654;SDS011;13500;52.514;13.462;2024-02-23T10:49:14;2.00;;;0.60;;
8654;SDS011;13500;52.514;13.462;2024-02-23T10:51:43;1.10;;;0.90;;
8654;SDS011;13500;52.514;13.462;2024-02-23T10:54:15;2.23;;;0.67;;
8654;SDS011;13500;52.514;13.462;2024-02-23T10:56:46;1.13;;;0.63;;
8654;SDS011;13500;52.514;13.462;2024-02-23T10:59:15;2.83;;;0.80;;
8654;SDS011;13500;52.514;13.462;2024-02-23T11:01:46;2.57;;;0.80;;
8654;SDS011;13500;52.514;13.462;2024-02-23T11:04:15;1.97;;;0.93;;
8654;SDS011;13500;52.514;13.462;2024-02-23T11:06:48;1.03;;;0.80;;
8654;SDS011;13500;52.514;13.462;2024-02-23T11:09:20;1.77;;;0.80;;
8654;SDS011;13500;52.514;13.462;2024-02-23T11:11:52;1.70;;;0.73;;
8654;SDS011;13500;52.514;13.462;2024-02-23T11:14:30;2.23;;;1.53;;
8654;SDS011;13500;52.514;13.462;2024-02-23T11:16:59;2.03;;;0.80;;
8654;SDS011;13500;52.514;13.462;2024-02-23T11:19:34;1.67;;;1.00;;
8654;SDS011;13500;52.514;13.462;2024-02-23T11:22:03;1.47;;;1.10;;
8654;SDS011;13500;52.514;13.462;2024-02-23T11:24:43;1.27;;;0.70;;
8654;SDS011;13500;52.514;13.462;2024-02-23T11:27:13;3.03;;;2.23;;
8654;SDS011;13500;52.514;13.462;2024-02-23T11:29:44;2.23;;;1.30;;
8654;SDS011;13500;52.514;13.462;2024-02-23T11:32:13;2.87;;;1.30;;
8654;SDS011;13500;52.514;13.462;2024-02-23T11:34:42;3.20;;;1.50;;
8654;SDS011;13500;52.514;13.462;2024-02-23T11:37:10;2.80;;;1.20;;
8654;SDS011;13500;52.514;13.462;2024-02-23T11:39:38;2.80;;;1.10;;
8654;SDS011;13500;52.514;13.462;2024-02-23T11:42:08;2.77;;;1.27;;
8654;SDS011;13500;52.514;13.462;2024-02-23T11:44:35;2.23;;;1.00;;
8654;SDS011;13500;52.514;13.462;2024-02-23T11:47:04;1.40;;;0.97;;
8654;SDS011;13500;52.514;13.462;2024-02-23T11:49:32;3.07;;;1.10;;
8654;SDS011;13500;52.514;13.462;2024-02-23T11:52:00;3.27;;;1.70;;
8654;SDS011;13500;52.514;13.462;2024-02-23T11:54:29;5.17;;;1.60;;
8654;SDS011;13500;52.514;13.462;2024-02-23T11:56:58;5.63;;;2.00;;
8654;SDS011;13500;52.514;13.462;2024-02-23T11:59:28;1.93;;;1.27;;
8654;SDS011;13500;52.514;13.462;2024-02-23T12:01:56;3.50;;;1.23;;
8654;SDS011;13500;52.514;13.462;2024-02-23T12:04:26;2.40;;;1.40;;
8654;SDS011;13500;52.514;13.462;2024-02-23T12:06:55;1.37;;;0.93;;
8654;SDS011;13500;52.514;13.462;2024-02-23T12:09:23;2.43;;;1.00;;
8654;SDS011;13500;52.514;13.462;2024-02-23T12:11:51;3.33;;;1.47;;
8654;SDS011;13500;52.514;13.462;2024-02-23T12:14:19;5.33;;;4.83;;
8654;SDS011;13500;52.514;13.462;2024-02-23T12:16:49;1.70;;;0.87;;
8654;SDS011;13500;52.514;13.462;2024-02-23T12:19:19;2.27;;;0.90;;
8654;SDS011;13500;52.514;13.462;2024-02-23T12:21:47;2.33;;;0.90;;
8654;SDS011;13500;52.514;13.462;2024-02-23T12:24:15;1.63;;;1.20;;
8654;SDS011;13500;52.514;13.462;2024-02-23T12:26:43;0.93;;;0.80;;
8654;SDS011;13500;52.514;13.462;2024-02-23T12:29:11;2.50;;;1.20;;
8654;SDS011;13500;52.514;13.462;2024-02-23T12:31:39;2.30;;;1.20;;
8654;SDS011;13500;52.514;13.462;2024-02-23T12:34:10;2.47;;;1.07;;
8654;SDS011;13500;52.514;13.462;2024-02-23T12:36:39;3.30;;;1.43;;
8654;SDS011;13500;52.514;13.462;2024-02-23T12:39:07;3.03;;;1.10;;
8654;SDS011;13500;52.514;13.462;2024-02-23T12:41:35;2.63;;;1.20;;
8654;SDS011;13500;52.514;13.462;2024-02-23T12:44:03;1.93;;;1.03;;
8654;SDS011;13500;52.514;13.462;2024-02-23T12:46:31;1.53;;;0.80;;
8654;SDS011;13500;52.514;13.462;2024-02-23T12:48:59;2.37;;;0.70;;
8654;SDS011;13500;52.514;13.462;2024-02-23T12:51:28;1.10;;;0.73;;
8654;SDS011;13500;52.514;13.462;2024-02-23T12:53:56;4.90;;;1.30;;
8654;SDS011;13500;52.514;13.462;2024-02-23T12:56:24;1.07;;;0.70;;
8654;SDS011;13500;52.514;13.462;2024-02-23T12:58:52;2.20;;;0.87;;
8654;SDS011;13500;52.514;13.462;2024-02-23T13:01:20;3.07;;;0.83;;
8654;SDS011;13500;52.514;13.462;2024-02-23T13:03:48;2.23;;;1.10;;
8654;SDS011;13500;52.514;13.462;2024-02-23T13:06:17;2.90;;;1.60;;
8654;SDS011;13500;52.514;13.462;2024-02-23T13:08:46;1.63;;;1.10;;
8654;SDS011;13500;52.514;13.462;2024-02-23T13:11:14;3.03;;;1.50;;
8654;SDS011;13500;52.514;13.462;2024-02-23T13:13:42;1.40;;;1.10;;
8654;SDS011;13500;52.514;13.462;2024-02-23T13:16:10;2.17;;;1.27;;
8654;SDS011;13500;52.514;13.462;2024-02-23T13:18:41;3.10;;;1.20;;
8654;SDS011;13500;52.514;13.462;2024-02-23T13:21:09;1.67;;;1.10;;
8654;SDS011;13500;52.514;13.462;2024-02-23T13:23:37;1.97;;;1.00;;
8654;SDS011;13500;52.514;13.462;2024-02-23T13:26:07;2.20;;;1.07;;
8654;SDS011;13500;52.514;13.462;2024-02-23T13:28:39;2.10;;;1.27;;
8654;SDS011;13500;52.514;13.462;2024-02-23T13:31:07;3.00;;;1.07;;
8654;SDS011;13500;52.514;13.462;2024-02-23T13:33:35;2.30;;;1.00;;
8654;SDS011;13500;52.514;13.462;2024-02-23T13:36:03;3.70;;;1.53;;
8654;SDS011;13500;52.514;13.462;2024-02-23T13:38:32;1.87;;;1.00;;
8654;SDS011;13500;52.514;13.462;2024-02-23T13:41:04;2.17;;;1.27;;
8654;SDS011;13500;52.514;13.462;2024-02-23T13:43:34;2.10;;;0.80;;
8654;SDS011;13500;52.514;13.462;2024-02-23T13:46:02;3.20;;;1.30;;
8654;SDS011;13500;52.514;13.462;2024-02-23T13:48:30;2.13;;;1.17;;
8654;SDS011;13500;52.514;13.462;2024-02-23T13:50:59;5.27;;;1.60;;
8654;SDS011;13500;52.514;13.462;2024-02-23T13:53:29;2.60;;;1.17;;
8654;SDS011;13500;52.514;13.462;2024-02-23T13:55:58;3.20;;;1.10;;
8654;SDS011;13500;52.514;13.462;2024-02-23T13:58:27;2.10;;;1.10;;
8654;SDS011;13500;52.514;13.462;2024-02-23T14:00:56;2.67;;;1.10;;
8654;SDS011;13500;52.514;13.462;2024-02-23T14:03:24;1.33;;;0.70;;
8654;SDS011;13500;52.514;13.462;2024-02-23T14:05:52;3.10;;;0.90;;
8654;SDS011;13500;52.514;13.462;2024-02-23T14:08:20;2.57;;;1.43;;
8654;SDS011;13500;52.514;13.462;2024-02-23T14:10:48;3.03;;;0.90;;
8654;SDS011;13500;52.514;13.462;2024-02-23T14:13:16;1.47;;;1.10;;
8654;SDS011;13500;52.514;13.462;2024-02-23T14:15:44;2.57;;;1.27;;
8654;SDS011;13500;52.514;13.462;2024-02-23T14:18:13;2.60;;;1.30;;
8654;SDS011;13500;52.514;13.462;2024-02-23T14:20:41;2.07;;;1.00;;
8654;SDS011;13500;52.514;13.462;2024-02-23T14:23:10;4.17;;;1.00;;
8654;SDS011;13500;52.514;13.462;2024-02-23T14:25:38;2.33;;;1.10;;
8654;SDS011;13500;52.514;13.462;2024-02-23T14:28:06;2.20;;;1.10;;
8654;SDS011;13500;52.514;13.462;2024-02-23T14:30:33;1.93;;;1.10;;
8654;SDS011;13500;52.514;13.462;2024-02-23T14:33:02;2.10;;;1.30;;
8654;SDS011;13500;52.514;13.462;2024-02-23T14:35:31;3.37;;;1.00;;
8654;SDS011;13500;52.514;13.462;2024-02-23T14:37:59;1.67;;;0.87;;
8654;SDS011;13500;52.514;13.462;2024-02-23T14:40:27;1.43;;;1.00;;
8654;SDS011;13500;52.514;13.462;2024-02-23T14:42:55;1.87;;;1.10;;
8654;SDS011;13500;52.514;13.462;2024-02-23T14:45:23;3.10;;;0.87;;
8654;SDS011;13500;52.514;13.462;2024-02-23T14:47:53;2.47;;;1.40;;
8654;SDS011;13500;52.514;13.462;2024-02-23T14:50:22;2.63;;;1.40;;
8654;SDS011;13500;52.514;13.462;2024-02-23T14:52:52;3.43;;;1.10;;
8654;SDS011;13500;52.514;13.462;2024-02-23T14:55:21;3.37;;;1.50;;
8654;SDS011;13500;52.514;13.462;2024-02-23T14:57:49;2.83;;;1.50;;